Time;durP1;ratioP1;P1;durP2;ratioP2;P2;SDS_P1;SDS_P2;PMS_P1;PMS_P2;Temp;Humidity;BMP_temperature;BMP_pressure;BME280_temperature;BME280_humidity;BME280_pressure;Samples;Min_cycle;Max_cycle;Signal;HPM_P1;HPM_P2
2022/11/25 00:00:20;;;;;;;16.70;2.92;;;7.10;99.90;;;;;;4993523;28;20149;-75
2022/11/25 00:02:46;;;;;;;16.02;3.00;;;7.20;99.90;;;;;;5012139;28;20137;-77
2022/11/25 00:05:12;;;;;;;19.35;3.30;;;7.10;99.90;;;;;;5012072;28;20092;-79
2022/11/25 00:07:37;;;;;;;22.15;3.25;;;7.10;99.90;;;;;;5010009;28;20103;-76
2022/11/25 00:10:05;;;;;;;21.08;3.15;;;7.10;99.90;;;;;;5010637;28;20140;-79
2022/11/25 00:12:30;;;;;;;18.73;3.78;;;7.10;99.90;;;;;;5009639;28;20034;-78
2022/11/25 00:14:56;;;;;;;16.63;3.60;;;7.20;99.90;;;;;;5010541;28;20076;-79
2022/11/25 00:17:22;;;;;;;18.88;3.00;;;7.10;99.90;;;;;;5010237;28;20080;-79
2022/11/25 00:19:47;;;;;;;19.65;3.13;;;7.50;99.90;;;;;;5010630;28;20057;-78
2022/11/25 00:22:14;;;;;;;14.27;3.70;;;7.10;99.90;;;;;;5011882;28;20057;-78
2022/11/25 00:24:39;;;;;;;16.17;3.40;;;7.10;99.90;;;;;;5011776;28;20085;-77
2022/11/25 00:27:05;;;;;;;20.25;3.70;;;7.10;99.90;;;;;;5010741;28;20077;-77
2022/11/25 00:29:31;;;;;;;14.32;3.05;;;7.10;99.90;;;;;;5010437;28;20045;-77
2022/11/25 00:31:56;;;;;;;17.00;2.92;;;7.10;99.90;;;;;;5010316;28;20049;-78
2022/11/25 00:34:22;;;;;;;17.60;3.17;;;7.10;99.90;;;;;;5011074;28;20460;-77
2022/11/25 00:36:47;;;;;;;14.75;3.45;;;7.20;99.90;;;;;;5011188;28;20452;-77
2022/11/25 00:39:15;;;;;;;17.65;3.38;;;7.20;99.90;;;;;;5011361;28;20044;-76
2022/11/25 00:44:35;;;;;;;;;;;7.20;99.90;;;;;;5010435;28;20046;-78
2022/11/25 00:47:21;;;;;;;20.52;3.38;;;7.10;99.90;;;;;;4990466;28;19922;-78
2022/11/25 00:49:53;;;;;;;24.13;4.72;;;7.20;99.90;;;;;;4990047;28;20168;-77
2022/11/25 00:52:21;;;;;;;21.98;3.92;;;7.20;99.90;;;;;;4997673;28;20054;-77
2022/11/25 00:54:48;;;;;;;16.98;3.75;;;7.10;99.90;;;;;;5011037;28;20544;-78
2022/11/25 00:57:15;;;;;;;16.17;2.90;;;7.20;99.90;;;;;;5011274;28;20079;-77
2022/11/25 00:59:40;;;;;;;14.90;3.10;;;7.20;99.90;;;;;;5009768;28;20053;-77
2022/11/25 01:02:07;;;;;;;23.70;3.63;;;7.20;99.90;;;;;;5010974;28;20045;-79
2022/11/25 01:04:33;;;;;;;16.05;3.53;;;7.50;99.90;;;;;;5009880;28;20074;-79
2022/11/25 01:06:58;;;;;;;22.08;3.80;;;7.20;99.90;;;;;;5011231;28;20049;-78
2022/11/25 01:09:25;;;;;;;18.90;4.38;;;7.50;99.90;;;;;;5009732;28;20058;-76
2022/11/25 01:11:52;;;;;;;25.08;4.15;;;7.20;99.90;;;;;;5010863;28;20524;-78
2022/11/25 01:14:21;;;;;;;22.52;3.78;;;7.20;99.90;;;;;;5010428;28;20089;-77
2022/11/25 01:16:48;;;;;;;16.80;3.60;;;7.20;99.90;;;;;;5009665;28;20053;-78
2022/11/25 01:19:14;;;;;;;20.50;3.55;;;7.20;99.90;;;;;;5009581;28;20111;-78
2022/11/25 01:21:40;;;;;;;13.52;3.03;;;7.20;99.90;;;;;;5010819;28;20054;-77
2022/11/25 01:24:06;;;;;;;19.65;3.65;;;7.10;99.90;;;;;;5010196;28;20045;-76
2022/11/25 01:26:33;;;;;;;16.83;3.85;;;7.20;99.90;;;;;;5009307;28;20096;-78
2022/11/25 01:29:05;;;;;;;21.90;3.75;;;7.20;99.90;;;;;;5010893;28;20140;-78
2022/11/25 01:31:34;;;;;;;16.48;3.28;;;7.10;99.90;;;;;;5009570;28;20128;-79
2022/11/25 01:34:17;;;;;;;16.63;3.70;;;7.10;99.90;;;;;;5010434;28;20061;-77
2022/11/25 01:36:44;;;;;;;15.15;4.43;;;7.10;99.90;;;;;;5008888;28;20089;-78
2022/11/25 01:39:18;;;;;;;18.55;3.83;;;7.10;99.90;;;;;;5010459;28;20041;-78
2022/11/25 01:41:44;;;;;;;19.23;3.38;;;7.10;99.90;;;;;;5010414;28;20046;-78
2022/11/25 01:44:19;;;;;;;19.20;3.75;;;7.10;99.90;;;;;;5009467;28;20049;-78
2022/11/25 01:47:08;;;;;;;14.57;3.72;;;7.10;99.90;;;;;;5008732;28;20378;-77
2022/11/25 01:49:52;;;;;;;17.58;3.28;;;7.10;99.90;;;;;;5006795;28;20111;-77
2022/11/25 01:52:33;;;;;;;17.95;4.05;;;7.40;99.90;;;;;;5008885;28;20054;-78
2022/11/25 01:55:01;;;;;;;14.18;3.58;;;7.10;99.90;;;;;;5010213;28;20050;-79
2022/11/25 01:57:32;;;;;;;16.05;3.45;;;7.10;99.90;;;;;;5008468;28;20136;-78
2022/11/25 02:00:00;;;;;;;19.08;4.03;;;7.20;99.90;;;;;;5009550;28;20042;-79
2022/11/25 02:02:27;;;;;;;21.17;4.40;;;7.10;99.90;;;;;;5010140;28;20493;-78
2022/11/25 02:04:53;;;;;;;20.77;4.05;;;7.20;99.90;;;;;;5008562;28;20037;-75
2022/11/25 02:07:44;;;;;;;17.70;3.72;;;7.20;99.90;;;;;;5009787;28;20058;-79
2022/11/25 02:10:16;;;;;;;16.85;3.60;;;7.20;99.90;;;;;;5009877;28;20125;-78
2022/11/25 02:12:44;;;;;;;18.10;4.18;;;7.20;99.90;;;;;;5010096;28;20061;-78
2022/11/25 02:15:11;;;;;;;20.88;4.15;;;7.60;99.90;;;;;;5009930;28;20546;-77
2022/11/25 02:17:37;;;;;;;27.45;4.32;;;7.20;99.90;;;;;;5008321;28;20050;-78
2022/11/25 02:20:11;;;;;;;19.75;3.97;;;7.20;99.90;;;;;;5010128;28;20042;-77
2022/11/25 02:22:48;;;;;;;22.00;3.75;;;7.20;99.90;;;;;;5008892;28;20497;-78
2022/11/25 02:25:20;;;;;;;20.77;4.20;;;7.10;99.90;;;;;;5008285;28;20156;-79
2022/11/25 02:27:55;;;;;;;20.90;4.68;;;7.20;99.90;;;;;;5009545;28;20041;-79
2022/11/25 02:30:20;;;;;;;16.95;3.85;;;7.20;99.90;;;;;;4990235;28;20047;-77
2022/11/25 02:32:47;;;;;;;18.13;3.90;;;7.20;99.90;;;;;;4990112;28;20100;-78
2022/11/25 02:35:36;;;;;;;17.63;3.70;;;7.20;99.90;;;;;;4988837;28;20069;-77
2022/11/25 02:38:08;;;;;;;15.35;3.92;;;7.20;99.90;;;;;;4993910;28;20054;-78
2022/11/25 02:40:40;;;;;;;20.42;3.47;;;7.20;99.90;;;;;;4993705;28;20050;-78
2022/11/25 02:43:05;;;;;;;18.65;4.07;;;7.20;99.90;;;;;;4994080;28;20054;-76
2022/11/25 02:45:55;;;;;;;20.02;4.45;;;7.20;99.90;;;;;;4993016;28;20042;-78
2022/11/25 02:48:21;;;;;;;17.67;3.97;;;7.20;99.90;;;;;;4993394;28;20117;-79
2022/11/25 02:50:47;;;;;;;17.73;4.35;;;7.20;99.90;;;;;;5012267;28;20546;-78
2022/11/25 02:53:13;;;;;;;16.52;4.47;;;7.20;99.90;;;;;;5012136;28;20054;-78
2022/11/25 02:55:38;;;;;;;17.85;4.55;;;7.20;99.90;;;;;;5013544;28;20045;-78
2022/11/25 02:58:04;;;;;;;20.08;5.47;;;7.20;99.90;;;;;;5013783;28;20046;-75
2022/11/25 03:00:30;;;;;;;23.17;5.07;;;7.30;99.90;;;;;;5012787;28;20121;-77
2022/11/25 03:02:55;;;;;;;18.13;4.25;;;7.30;99.90;;;;;;5012913;28;20054;-78
2022/11/25 03:05:22;;;;;;;24.23;5.55;;;7.20;99.90;;;;;;5011703;28;20085;-78
2022/11/25 03:07:47;;;;;;;24.05;4.43;;;7.30;99.90;;;;;;5012973;28;20049;-79
2022/11/25 03:10:13;;;;;;;15.77;4.28;;;7.60;99.90;;;;;;5013032;28;20108;-77
2022/11/25 03:12:39;;;;;;;18.42;4.50;;;7.40;99.90;;;;;;5013091;28;20058;-79
2022/11/25 03:15:05;;;;;;;15.88;4.32;;;7.30;99.90;;;;;;5013442;28;20448;-79
2022/11/25 03:17:31;;;;;;;19.65;4.22;;;7.30;99.90;;;;;;5011679;28;20117;-77
2022/11/25 03:19:56;;;;;;;21.33;4.70;;;7.70;99.90;;;;;;5012731;28;20402;-79
2022/11/25 03:22:22;;;;;;;22.15;4.60;;;7.30;99.90;;;;;;5012530;28;20569;-79
2022/11/25 03:24:47;;;;;;;21.50;4.63;;;7.40;99.90;;;;;;5011469;28;20535;-77
2022/11/25 03:27:13;;;;;;;24.10;4.50;;;7.50;99.90;;;;;;5012642;28;20081;-79
2022/11/25 03:29:39;;;;;;;21.73;4.97;;;7.50;99.90;;;;;;5027837;28;20041;-76
2022/11/25 03:32:05;;;;;;;26.95;6.00;;;7.50;99.90;;;;;;5011301;28;20445;-78
2022/11/25 03:34:30;;;;;;;22.90;4.78;;;7.50;99.90;;;;;;5010994;28;20041;-79
2022/11/25 03:36:56;;;;;;;22.55;4.15;;;7.50;99.90;;;;;;5012459;28;20054;-80
2022/11/25 03:39:22;;;;;;;21.30;5.20;;;7.60;99.90;;;;;;5012353;28;20038;-80
2022/11/25 03:41:48;;;;;;;26.67;5.18;;;7.60;99.90;;;;;;5012389;28;20111;-78
2022/11/25 03:44:14;;;;;;;23.08;5.90;;;7.50;99.90;;;;;;5012056;28;20054;-78
2022/11/25 03:46:40;;;;;;;21.05;4.60;;;8.00;99.90;;;;;;5012468;28;20065;-79
2022/11/25 03:49:06;;;;;;;24.67;5.72;;;7.60;99.90;;;;;;5010632;28;20104;-78
2022/11/25 03:51:31;;;;;;;16.58;5.25;;;7.80;99.90;;;;;;5011606;28;20037;-80
2022/11/25 03:53:57;;;;;;;20.38;5.25;;;7.60;99.90;;;;;;5011843;28;20073;-77
2022/11/25 03:56:23;;;;;;;20.88;5.90;;;7.60;99.90;;;;;;5012195;28;20045;-78
2022/11/25 03:58:48;;;;;;;21.23;5.55;;;7.60;99.90;;;;;;5012434;28;20049;-79
2022/11/25 04:01:14;;;;;;;22.20;5.57;;;7.60;99.90;;;;;;5012059;28;20050;-79
2022/11/25 04:03:39;;;;;;;17.48;5.32;;;7.60;99.90;;;;;;5011181;28;20100;-78
2022/11/25 04:06:05;;;;;;;20.85;6.43;;;7.60;99.90;;;;;;5012002;28;20046;-78
2022/11/25 04:08:31;;;;;;;23.95;6.25;;;7.60;99.90;;;;;;5011733;28;20127;-76
2022/11/25 04:10:56;;;;;;;27.92;7.22;;;7.60;99.90;;;;;;5011917;28;20088;-79
2022/11/25 04:13:22;;;;;;;18.55;6.75;;;7.60;99.90;;;;;;5010722;28;20041;-78
2022/11/25 04:15:49;;;;;;;23.45;7.05;;;7.60;99.90;;;;;;5011623;28;20567;-78
2022/11/25 04:18:16;;;;;;;22.70;6.97;;;7.60;99.90;;;;;;5011967;28;20053;-77
2022/11/25 04:20:42;;;;;;;17.92;5.80;;;7.60;99.90;;;;;;5009824;28;20057;-78
2022/11/25 04:23:09;;;;;;;24.70;6.88;;;7.60;99.90;;;;;;5011661;28;20511;-77
2022/11/25 04:25:35;;;;;;;17.88;6.70;;;7.60;99.90;;;;;;5011134;28;20053;-75
2022/11/25 04:28:01;;;;;;;26.77;7.32;;;7.80;99.90;;;;;;5010147;28;20115;-77
2022/11/25 04:30:27;;;;;;;21.80;7.32;;;7.60;99.90;;;;;;5010142;28;20767;-76
2022/11/25 04:32:53;;;;;;;26.77;7.20;;;7.60;99.90;;;;;;5010269;28;20511;-77
2022/11/25 04:35:18;;;;;;;23.60;7.22;;;7.60;99.90;;;;;;5010973;28;20132;-77
2022/11/25 04:37:44;;;;;;;20.40;6.57;;;7.60;99.90;;;;;;5011445;28;20454;-78
2022/11/25 04:40:10;;;;;;;24.27;7.10;;;8.30;99.90;;;;;;5011049;28;20666;-77
2022/11/25 04:42:38;;;;;;;25.90;7.75;;;7.60;99.90;;;;;;5011193;28;20050;-75
2022/11/25 04:45:11;;;;;;;15.45;6.18;;;7.70;99.90;;;;;;5011643;28;20743;-77
2022/11/25 04:47:37;;;;;;;18.38;6.70;;;7.70;99.90;;;;;;5011284;28;20069;-77
2022/11/25 04:50:04;;;;;;;22.13;6.47;;;7.90;99.90;;;;;;5009695;28;20049;-78
2022/11/25 04:52:30;;;;;;;24.80;6.93;;;7.70;99.90;;;;;;5010422;28;20511;-78
2022/11/25 04:54:56;;;;;;;25.33;7.53;;;7.70;99.90;;;;;;5010829;28;20046;-76
2022/11/25 04:57:22;;;;;;;28.20;7.38;;;7.70;99.90;;;;;;5011035;28;20456;-78
2022/11/25 04:59:48;;;;;;;20.42;7.28;;;7.70;99.90;;;;;;5010717;28;20105;-77
2022/11/25 05:02:18;;;;;;;27.42;7.53;;;7.70;99.90;;;;;;5009370;28;20142;-77
2022/11/25 05:04:47;;;;;;;21.50;6.50;;;7.70;99.90;;;;;;5009532;28;20403;-78
2022/11/25 05:07:14;;;;;;;24.23;6.75;;;7.70;99.90;;;;;;5010723;28;20049;-77
2022/11/25 05:09:39;;;;;;;23.00;6.85;;;7.70;99.90;;;;;;5010869;28;20064;-77
2022/11/25 05:12:07;;;;;;;28.88;7.07;;;7.80;99.90;;;;;;5011243;28;20042;-78
2022/11/25 05:14:34;;;;;;;18.95;6.15;;;7.80;99.90;;;;;;5011154;28;20045;-77
2022/11/25 05:17:01;;;;;;;27.58;7.30;;;7.70;99.90;;;;;;5010732;28;20437;-78
2022/11/25 05:19:26;;;;;;;23.83;6.68;;;7.80;99.90;;;;;;5008923;28;20046;-77
2022/11/25 05:21:52;;;;;;;22.48;6.50;;;7.80;99.90;;;;;;5010592;28;20535;-77
2022/11/25 05:24:18;;;;;;;23.48;6.43;;;7.80;99.90;;;;;;5009248;28;20448;-77
2022/11/25 05:26:43;;;;;;;24.95;6.95;;;7.80;99.90;;;;;;5010338;28;20064;-78
2022/11/25 05:29:09;;;;;;;23.25;6.30;;;7.80;99.90;;;;;;5010669;28;20080;-78
2022/11/25 05:31:35;;;;;;;22.58;6.85;;;7.80;99.90;;;;;;5010465;28;20059;-78
2022/11/25 05:34:01;;;;;;;29.35;7.30;;;7.80;99.90;;;;;;5010443;28;20053;-78
2022/11/25 05:36:28;;;;;;;22.60;6.53;;;7.80;99.90;;;;;;5010062;28;20516;-77
2022/11/25 05:38:55;;;;;;;18.23;6.35;;;7.80;99.90;;;;;;5010345;28;20057;-78
2022/11/25 05:41:21;;;;;;;23.67;6.55;;;7.80;99.90;;;;;;5010561;28;20093;-78
2022/11/25 05:43:46;;;;;;;20.77;6.75;;;7.80;99.90;;;;;;5010332;28;20069;-79
2022/11/25 05:46:12;;;;;;;26.15;7.13;;;7.80;99.90;;;;;;5009107;28;20053;-78
2022/11/25 05:48:38;;;;;;;26.85;6.95;;;7.80;99.90;;;;;;5010063;28;20045;-79
2022/11/25 05:51:04;;;;;;;23.83;6.97;;;7.80;99.90;;;;;;5009734;28;20053;-77
2022/11/25 05:53:30;;;;;;;22.45;7.28;;;7.80;99.90;;;;;;5010128;28;20050;-78
2022/11/25 05:55:59;;;;;;;23.27;6.97;;;7.80;99.90;;;;;;5010067;28;20064;-77
2022/11/25 05:58:25;;;;;;;22.40;6.90;;;7.80;99.90;;;;;;4991980;28;20129;-78
2022/11/25 06:00:51;;;;;;;26.92;7.30;;;7.80;99.90;;;;;;5010348;28;20128;-77
2022/11/25 06:03:17;;;;;;;30.17;7.50;;;7.80;99.90;;;;;;5010224;28;20053;-78
2022/11/25 06:05:43;;;;;;;29.00;7.60;;;8.00;99.90;;;;;;5025312;28;20505;-77
2022/11/25 06:08:09;;;;;;;22.70;6.70;;;7.80;99.90;;;;;;5010051;28;20717;-78
2022/11/25 06:10:39;;;;;;;24.00;7.13;;;7.90;99.90;;;;;;5008974;28;20069;-78
2022/11/25 06:13:05;;;;;;;24.05;7.03;;;7.90;99.90;;;;;;5014098;28;20087;-78
2022/11/25 06:15:31;;;;;;;24.25;7.15;;;7.90;99.90;;;;;;5013734;28;20053;-77
2022/11/25 06:17:57;;;;;;;21.88;6.95;;;7.90;99.90;;;;;;5012793;28;20053;-79
2022/11/25 06:20:22;;;;;;;21.27;6.65;;;7.90;99.90;;;;;;5013701;28;20042;-78
2022/11/25 06:22:48;;;;;;;17.33;6.78;;;7.90;99.90;;;;;;5013874;28;20532;-78
2022/11/25 06:25:13;;;;;;;21.52;6.78;;;7.90;99.90;;;;;;5013517;28;20042;-78
2022/11/25 06:27:39;;;;;;;24.75;6.68;;;7.90;99.90;;;;;;5014032;28;20073;-77
2022/11/25 06:30:06;;;;;;;25.70;7.18;;;7.90;99.90;;;;;;5013515;28;20045;-76
2022/11/25 06:32:32;;;;;;;17.13;6.45;;;7.90;99.90;;;;;;5013651;28;20046;-78
2022/11/25 06:34:57;;;;;;;19.55;6.38;;;7.90;99.90;;;;;;5013744;28;20458;-79
2022/11/25 06:37:23;;;;;;;17.10;6.13;;;7.90;99.90;;;;;;5013789;28;20054;-78
2022/11/25 06:39:49;;;;;;;24.52;6.50;;;7.90;99.90;;;;;;5013786;28;20042;-78
2022/11/25 06:42:14;;;;;;;18.27;6.07;;;7.90;99.90;;;;;;5012921;28;20050;-77
2022/11/25 06:44:40;;;;;;;16.90;5.70;;;7.90;99.90;;;;;;5013663;28;20077;-77
2022/11/25 06:47:05;;;;;;;18.40;6.20;;;7.90;99.90;;;;;;5012265;28;20052;-78
2022/11/25 06:49:31;;;;;;;18.05;5.75;;;7.90;99.90;;;;;;5013387;28;20041;-78
2022/11/25 06:51:57;;;;;;;21.17;5.53;;;7.90;99.90;;;;;;5011694;28;20129;-77
2022/11/25 06:54:22;;;;;;;17.55;5.47;;;7.90;99.90;;;;;;5013348;28;20085;-78
2022/11/25 06:56:52;;;;;;;19.58;5.45;;;7.90;99.90;;;;;;5013336;28;20485;-78
2022/11/25 06:59:19;;;;;;;19.50;5.20;;;7.90;99.90;;;;;;5011871;28;20042;-78
2022/11/25 07:01:45;;;;;;;18.02;5.38;;;7.90;99.90;;;;;;5012170;28;20140;-79
2022/11/25 07:04:11;;;;;;;15.40;5.03;;;7.90;99.90;;;;;;5013574;28;20124;-77
2022/11/25 07:06:36;;;;;;;16.95;5.32;;;7.90;99.90;;;;;;5011953;28;20137;-78
2022/11/25 07:09:03;;;;;;;15.63;5.30;;;7.90;99.90;;;;;;5028233;28;20470;-78
2022/11/25 07:11:34;;;;;;;17.58;4.70;;;8.00;99.90;;;;;;5013168;28;20085;-79
2022/11/25 07:14:03;;;;;;;14.77;4.55;;;8.60;99.90;;;;;;5011565;28;20103;-78
2022/11/25 07:16:30;;;;;;;13.95;4.50;;;8.00;99.90;;;;;;5012590;28;20091;-78
2022/11/25 07:18:58;;;;;;;20.08;5.00;;;8.00;99.90;;;;;;5013034;28;20033;-79
2022/11/25 07:21:24;;;;;;;14.20;4.43;;;8.00;99.90;;;;;;5012051;28;20786;-78
2022/11/25 07:23:50;;;;;;;15.27;4.60;;;8.30;99.90;;;;;;5012703;28;20076;-78
2022/11/25 07:26:24;;;;;;;16.33;4.53;;;8.00;99.90;;;;;;5012504;28;20413;-78
2022/11/25 07:28:51;;;;;;;13.93;3.55;;;8.00;99.90;;;;;;5013076;28;20046;-78
2022/11/25 07:31:26;;;;;;;13.68;3.92;;;8.00;99.90;;;;;;5011074;28;20038;-81
2022/11/25 07:33:56;;;;;;;10.70;3.60;;;8.00;99.90;;;;;;5012747;28;20058;-78
2022/11/25 07:36:23;;;;;;;15.88;4.25;;;8.00;99.90;;;;;;5011581;28;20046;-79
2022/11/25 07:38:49;;;;;;;13.35;3.97;;;8.00;99.90;;;;;;5011083;28;20052;-78
2022/11/25 07:41:18;;;;;;;11.43;3.67;;;7.90;99.90;;;;;;5012878;28;20053;-78
2022/11/25 07:43:44;;;;;;;12.70;3.20;;;7.90;99.90;;;;;;5012367;28;20037;-76
2022/11/25 07:46:21;;;;;;;12.10;3.25;;;7.90;99.90;;;;;;5012669;28;20100;-75
2022/11/25 07:48:47;;;;;;;14.65;3.78;;;7.90;99.90;;;;;;5010536;28;20050;-78
2022/11/25 07:51:21;;;;;;;16.13;3.90;;;7.80;99.90;;;;;;5011025;28;20128;-76
2022/11/25 07:53:47;;;;;;;9.23;3.00;;;8.00;99.90;;;;;;5010542;28;20050;-78
2022/11/25 07:56:14;;;;;;;10.77;3.90;;;7.70;99.90;;;;;;5012685;28;20046;-78
2022/11/25 07:58:40;;;;;;;10.52;3.53;;;7.70;99.90;;;;;;5010758;28;20135;-77
2022/11/25 08:01:07;;;;;;;14.07;3.80;;;7.70;99.90;;;;;;5011470;28;20048;-78
2022/11/25 08:03:35;;;;;;;14.35;3.45;;;7.70;99.90;;;;;;5012311;28;20100;-78
2022/11/25 08:06:01;;;;;;;14.38;3.58;;;7.60;99.90;;;;;;5010412;28;20488;-78
2022/11/25 08:08:27;;;;;;;16.55;4.13;;;7.60;99.90;;;;;;5011589;28;20475;-78
2022/11/25 08:10:53;;;;;;;12.43;3.47;;;7.60;99.90;;;;;;5010434;28;20056;-79
2022/11/25 08:13:18;;;;;;;12.13;3.65;;;7.60;99.90;;;;;;5012204;28;20042;-78
2022/11/25 08:15:44;;;;;;;13.30;3.22;;;7.80;99.90;;;;;;5010549;28;20056;-79
2022/11/25 08:18:10;;;;;;;13.43;3.85;;;7.50;99.90;;;;;;5012042;28;20052;-78
2022/11/25 08:20:36;;;;;;;13.88;3.85;;;7.60;99.90;;;;;;5009783;28;20042;-77
2022/11/25 08:23:01;;;;;;;15.73;4.00;;;7.90;99.90;;;;;;5011991;28;20050;-78
2022/11/25 08:25:28;;;;;;;15.65;3.90;;;7.60;99.90;;;;;;5011893;28;20133;-79
2022/11/25 08:27:54;;;;;;;12.70;3.80;;;7.60;99.90;;;;;;5010348;28;20057;-78
2022/11/25 08:30:23;;;;;;;13.23;3.22;;;7.60;99.90;;;;;;5010849;28;20509;-79
2022/11/25 08:32:49;;;;;;;13.38;3.30;;;7.50;99.90;;;;;;5011416;28;20046;-78
2022/11/25 08:35:14;;;;;;;13.52;3.60;;;7.60;99.90;;;;;;5009411;28;20145;-79
2022/11/25 08:37:40;;;;;;;16.25;4.55;;;7.60;99.90;;;;;;5009639;28;20058;-79
2022/11/25 08:40:06;;;;;;;10.07;3.80;;;7.60;99.90;;;;;;5010454;28;20053;-79
2022/11/25 08:42:32;;;;;;;14.30;3.50;;;7.60;99.90;;;;;;5010266;28;20481;-79
2022/11/25 08:44:58;;;;;;;13.73;3.72;;;8.10;99.90;;;;;;5011739;28;20049;-78
2022/11/25 08:47:24;;;;;;;11.93;3.53;;;7.60;99.90;;;;;;5011514;28;20117;-78
2022/11/25 08:49:52;;;;;;;10.07;3.60;;;8.10;99.90;;;;;;5011513;28;20449;-78
2022/11/25 08:52:18;;;;;;;9.02;3.22;;;8.00;99.90;;;;;;5011011;28;20053;-78
2022/11/25 08:54:43;;;;;;;9.60;3.95;;;7.70;99.90;;;;;;5010483;28;20053;-82
2022/11/25 08:57:09;;;;;;;14.07;4.28;;;7.70;99.90;;;;;;5011427;28;20080;-78
2022/11/25 08:59:35;;;;;;;10.80;3.80;;;7.80;99.90;;;;;;5011610;28;20048;-77
2022/11/25 09:02:01;;;;;;;14.65;4.18;;;7.80;99.90;;;;;;5000034;28;20050;-76
2022/11/25 09:04:26;;;;;;;15.00;4.43;;;7.80;99.90;;;;;;4991885;28;20049;-78
2022/11/25 09:06:52;;;;;;;14.90;4.50;;;7.80;99.90;;;;;;5010251;28;20050;-77
2022/11/25 09:09:17;;;;;;;15.05;4.30;;;8.50;99.90;;;;;;5009601;28;20045;-79
2022/11/25 09:11:43;;;;;;;12.05;4.55;;;7.90;99.90;;;;;;5009684;28;20058;-78
2022/11/25 09:14:09;;;;;;;14.40;4.57;;;7.90;99.90;;;;;;5009818;28;20825;-79
2022/11/25 09:16:34;;;;;;;13.02;4.25;;;8.00;99.90;;;;;;4993653;28;20494;-77
2022/11/25 09:19:00;;;;;;;17.30;4.28;;;8.00;99.90;;;;;;4991958;28;20077;-78
2022/11/25 09:21:26;;;;;;;12.75;4.38;;;8.20;99.90;;;;;;5010366;28;20065;-79
2022/11/25 09:23:56;;;;;;;12.35;4.20;;;8.20;99.90;;;;;;5009388;28;20081;-78
2022/11/25 09:26:25;;;;;;;10.38;4.03;;;8.40;99.90;;;;;;5009626;28;20394;-79
2022/11/25 09:28:51;;;;;;;13.63;4.25;;;8.40;99.90;;;;;;5010480;28;20058;-79
2022/11/25 09:31:17;;;;;;;8.52;4.07;;;9.10;99.90;;;;;;5009262;28;20116;-78
2022/11/25 09:33:43;;;;;;;12.63;4.05;;;8.60;99.90;;;;;;5010479;28;20054;-80
2022/11/25 09:36:11;;;;;;;10.40;3.88;;;8.70;99.90;;;;;;5010549;28;20081;-80
2022/11/25 09:38:37;;;;;;;11.82;3.63;;;8.80;99.90;;;;;;5009354;28;20546;-79
2022/11/25 09:41:13;;;;;;;10.02;3.92;;;8.90;99.90;;;;;;5010439;28;20056;-80
2022/11/25 09:46:58;;;;;;;12.73;3.70;;;9.10;99.90;;;;;;5008964;28;20085;-79
2022/11/25 09:49:36;;;;;;;9.38;3.28;;;9.20;99.90;;;;;;5010417;28;20044;-80
2022/11/25 09:52:26;;;;;;;7.03;3.17;;;9.60;99.90;;;;;;5009977;28;20085;-82
2022/11/25 09:55:06;;;;;;;10.23;3.35;;;9.40;99.90;;;;;;4997752;28;20467;-80
2022/11/25 09:57:37;;;;;;;11.15;3.92;;;9.50;99.90;;;;;;5009971;28;20049;-80
2022/11/25 10:00:03;;;;;;;12.40;3.42;;;9.50;99.90;;;;;;5009994;28;20041;-77
2022/11/25 10:02:38;;;;;;;10.07;3.35;;;9.60;99.90;;;;;;5009862;28;20751;-80
2022/11/25 10:05:20;;;;;;;9.20;3.40;;;9.70;99.90;;;;;;5009568;28;20052;-79
2022/11/25 10:07:52;;;;;;;11.52;3.38;;;9.80;99.90;;;;;;5009000;28;20049;-81
2022/11/25 10:10:30;;;;;;;12.80;3.40;;;9.90;99.90;;;;;;5009665;28;20045;-79
2022/11/25 10:12:57;;;;;;;8.95;2.85;;;10.00;99.90;;;;;;5009043;28;20461;-76
2022/11/25 10:15:35;;;;;;;10.77;3.22;;;10.10;99.90;;;;;;5003148;28;20551;-77
2022/11/25 10:18:22;;;;;;;12.10;3.30;;;10.20;99.90;;;;;;4997238;28;20056;-79
2022/11/25 10:20:50;;;;;;;11.15;3.88;;;10.30;99.90;;;;;;5006946;28;20081;-81
2022/11/25 10:23:29;;;;;;;10.02;2.92;;;10.80;99.90;;;;;;4991946;28;20053;-80
2022/11/25 10:26:00;;;;;;;13.10;3.45;;;10.30;99.90;;;;;;4990613;28;20618;-80
2022/11/25 10:28:31;;;;;;;10.05;3.33;;;10.90;99.90;;;;;;4990832;28;20066;-80
2022/11/25 10:31:17;;;;;;;14.25;3.55;;;10.80;99.90;;;;;;4989280;28;20129;-78
2022/11/25 10:33:44;;;;;;;9.40;3.03;;;10.60;99.90;;;;;;4990289;28;20069;-80
2022/11/25 10:36:32;;;;;;;13.85;3.22;;;11.10;99.90;;;;;;4990433;28;20050;-80
2022/11/25 10:39:23;;;;;;;10.38;2.78;;;10.60;99.90;;;;;;4995238;28;20042;-79
2022/11/25 10:41:54;;;;;;;11.23;2.55;;;10.50;99.90;;;;;;5009886;28;20088;-78
2022/11/25 10:44:28;;;;;;;15.30;2.90;;;10.40;99.90;;;;;;5010046;28;20050;-78
2022/11/25 10:47:16;;;;;;;9.98;2.85;;;10.30;99.90;;;;;;4992143;28;20188;-79
2022/11/25 10:49:59;;;;;;;12.52;2.72;;;10.30;99.90;;;;;;5008145;28;20501;-80
2022/11/25 10:52:28;;;;;;;15.48;3.55;;;10.50;99.90;;;;;;5009611;28;20050;-77
2022/11/25 10:55:07;;;;;;;10.60;3.00;;;10.50;99.90;;;;;;5009465;28;20058;-78
2022/11/25 10:57:33;;;;;;;10.75;2.83;;;10.90;99.90;;;;;;5010331;28;20100;-78
2022/11/25 10:59:59;;;;;;;13.50;3.13;;;10.70;99.90;;;;;;5011973;28;20042;-80
2022/11/25 11:02:28;;;;;;;13.30;2.53;;;10.70;99.90;;;;;;5011707;28;20049;-79
2022/11/25 11:05:09;;;;;;;9.10;3.53;;;10.80;99.90;;;;;;5011832;28;20563;-80
2022/11/25 11:07:40;;;;;;;12.88;3.10;;;10.90;99.90;;;;;;5012099;28;20080;-78
2022/11/25 11:10:23;;;;;;;10.88;2.92;;;11.00;99.90;;;;;;5013272;28;20060;-78
2022/11/25 11:13:18;;;;;;;11.15;2.83;;;10.90;99.90;;;;;;5013138;28;20539;-80
2022/11/25 11:15:46;;;;;;;16.83;3.10;;;11.10;99.90;;;;;;5006175;28;20505;-79
2022/11/25 11:18:18;;;;;;;11.48;2.53;;;11.50;99.90;;;;;;5012973;28;20301;-80
2022/11/25 11:20:49;;;;;;;13.02;3.35;;;11.20;99.90;;;;;;5011606;28;20371;-79
2022/11/25 11:23:15;;;;;;;16.50;3.40;;;11.70;99.90;;;;;;5013084;28;20131;-77
2022/11/25 11:25:55;;;;;;;12.60;2.67;;;11.30;99.90;;;;;;5012866;28;20509;-78
2022/11/25 11:28:39;;;;;;;14.07;2.85;;;11.30;99.90;;;;;;5012769;28;20394;-78
2022/11/25 11:31:16;;;;;;;18.17;2.75;;;11.40;99.90;;;;;;5012980;28;20117;-78
2022/11/25 11:33:55;;;;;;;15.63;3.22;;;11.30;99.90;;;;;;5012611;28;20520;-78
2022/11/25 11:36:58;;;;;;;13.43;2.67;;;11.20;99.90;;;;;;5012452;28;20477;-79
2022/11/25 11:39:24;;;;;;;12.80;2.97;;;11.10;99.90;;;;;;5012494;28;20077;-78
2022/11/25 11:42:12;;;;;;;15.25;2.75;;;11.10;99.90;;;;;;5012019;28;20097;-78
2022/11/25 11:44:58;;;;;;;16.80;2.75;;;11.10;99.90;;;;;;4993101;28;20057;-77
2022/11/25 11:47:56;;;;;;;12.70;2.63;;;11.10;99.90;;;;;;4992966;28;20054;-77
2022/11/25 11:50:51;;;;;;;13.85;2.78;;;11.10;99.90;;;;;;4989851;28;20390;-78
2022/11/25 11:53:46;;;;;;;15.07;2.60;;;11.10;99.90;;;;;;4990388;28;20050;-77
2022/11/25 11:56:50;;;;;;;13.55;2.45;;;11.00;99.90;;;;;;4935165;29;20063;-78
2022/11/25 11:59:45;;;;;;;13.73;2.25;;;11.10;99.90;;;;;;4951585;29;20138;-77
2022/11/25 12:02:32;;;;;;;16.58;2.50;;;11.20;99.90;;;;;;4935469;29;20062;-77
2022/11/25 12:05:16;;;;;;;13.98;2.65;;;11.10;99.90;;;;;;4950596;29;20106;-78
2022/11/25 12:08:01;;;;;;;13.13;2.53;;;11.10;99.90;;;;;;4950744;28;20063;-77
2022/11/25 12:10:42;;;;;;;;;;;11.20;99.90;;;;;;4951310;29;20058;-80
2022/11/25 12:13:31;;;;;;;17.30;2.45;;;11.20;99.90;;;;;;4951082;29;19926;-77
2022/11/25 12:16:11;;;;;;;18.38;3.25;;;11.10;99.90;;;;;;4950759;28;20051;-78
2022/11/25 12:18:53;;;;;;;15.95;2.50;;;11.30;99.90;;;;;;4934950;29;20755;-78
2022/11/25 12:21:49;;;;;;;17.52;2.80;;;11.20;99.90;;;;;;4950434;29;20058;-78
2022/11/25 12:24:36;;;;;;;14.85;2.45;;;11.20;99.90;;;;;;4935258;29;20047;-78
2022/11/25 12:27:12;;;;;;;17.20;2.55;;;11.20;99.90;;;;;;4950741;29;20070;-76
2022/11/25 12:29:46;;;;;;;14.55;3.13;;;11.30;99.90;;;;;;4935151;29;20058;-76
2022/11/25 12:32:18;;;;;;;11.68;2.67;;;11.40;99.90;;;;;;4957279;28;20054;-78
2022/11/25 12:34:52;;;;;;;15.88;2.72;;;11.40;99.90;;;;;;4974668;28;20054;-77
2022/11/25 12:37:30;;;;;;;17.50;2.92;;;11.50;99.90;;;;;;4991881;28;20045;-79
2022/11/25 12:40:04;;;;;;;12.82;2.47;;;11.40;99.90;;;;;;4991961;28;20050;-77
2022/11/25 12:42:32;;;;;;;13.60;2.13;;;11.40;99.90;;;;;;4992076;28;20054;-76
2022/11/25 12:45:16;;;;;;;10.95;2.38;;;11.60;99.90;;;;;;4990474;28;20108;-77
2022/11/25 12:47:43;;;;;;;22.77;2.95;;;11.50;99.90;;;;;;4991655;28;20502;-77
2022/11/25 12:50:20;;;;;;;14.77;2.92;;;11.50;99.90;;;;;;4991902;28;20078;-77
2022/11/25 12:53:11;;;;;;;22.33;3.03;;;11.60;99.90;;;;;;4991845;28;20497;-79
2022/11/25 12:55:39;;;;;;;14.93;2.97;;;11.80;99.90;;;;;;4991676;28;20096;-77
2022/11/25 12:58:20;;;;;;;18.88;3.03;;;11.90;99.90;;;;;;4991467;28;20041;-77
2022/11/25 13:01:20;;;;;;;17.15;3.25;;;12.40;99.90;;;;;;4991434;28;20569;-79
2022/11/25 13:03:54;;;;;;;16.35;2.40;;;12.20;99.90;;;;;;4991640;28;20193;-78
2022/11/25 13:06:40;;;;;;;13.65;2.63;;;12.40;99.90;;;;;;4990144;28;20046;-78